sensor_id;sensor_type;location;lat;lon;timestamp;temperature;humidity
59067;DHT22;44854;50.838;4.438;2023-06-10T04:04:14;20.20;99.90
59067;DHT22;44854;50.838;4.438;2023-06-10T04:06:41;20.20;99.90
59067;DHT22;44854;50.838;4.438;2023-06-10T04:09:09;20.20;99.90
59067;DHT22;44854;50.838;4.438;2023-06-10T04:11:35;20.20;99.90
59067;DHT22;44854;50.838;4.438;2023-06-10T04:14:01;20.20;99.90
59067;DHT22;44854;50.838;4.438;2023-06-10T04:16:27;20.10;99.90
59067;DHT22;44854;50.838;4.438;2023-06-10T04:18:52;20.10;99.90
59067;DHT22;44854;50.838;4.438;2023-06-10T04:21:18;20.10;99.90
59067;DHT22;44854;50.838;4.438;2023-06-10T04:23:43;20.20;99.90
59067;DHT22;44854;50.838;4.438;2023-06-10T04:26:09;20.20;99.90
59067;DHT22;44854;50.838;4.438;2023-06-10T04:28:36;20.20;99.90
59067;DHT22;44854;50.838;4.438;2023-06-10T04:31:01;20.30;99.90
59067;DHT22;44854;50.838;4.438;2023-06-10T04:33:30;20.30;99.90
59067;DHT22;44854;50.838;4.438;2023-06-10T04:35:55;20.40;99.90
59067;DHT22;44854;50.838;4.438;2023-06-10T04:38:21;20.40;99.90
59067;DHT22;44854;50.838;4.438;2023-06-10T04:40:46;20.40;99.90
59067;DHT22;44854;50.838;4.438;2023-06-10T04:43:12;20.40;99.90
59067;DHT22;44854;50.838;4.438;2023-06-10T04:45:38;20.40;99.90
59067;DHT22;44854;50.838;4.438;2023-06-10T04:48:03;20.40;99.90
59067;DHT22;44854;50.838;4.438;2023-06-10T04:50:29;20.50;99.90
59067;DHT22;44854;50.838;4.438;2023-06-10T04:52:55;20.50;99.90
59067;DHT22;44854;50.838;4.438;2023-06-10T04:55:22;20.60;99.90
59067;DHT22;44854;50.838;4.438;2023-06-10T04:57:48;20.70;99.90
59067;DHT22;44854;50.838;4.438;2023-06-10T05:00:13;20.70;99.90
59067;DHT22;44854;50.838;4.438;2023-06-10T05:02:39;20.70;99.90
59067;DHT22;44854;50.838;4.438;2023-06-10T05:05:05;20.80;99.90
59067;DHT22;44854;50.838;4.438;2023-06-10T05:07:31;20.80;99.90
59067;DHT22;44854;50.838;4.438;2023-06-10T05:09:57;20.80;99.90
59067;DHT22;44854;50.838;4.438;2023-06-10T05:12:22;20.90;99.90
59067;DHT22;44854;50.838;4.438;2023-06-10T05:14:48;20.80;99.90
59067;DHT22;44854;50.838;4.438;2023-06-10T05:17:13;20.80;99.90
59067;DHT22;44854;50.838;4.438;2023-06-10T05:19:39;20.90;99.90
59067;DHT22;44854;50.838;4.438;2023-06-10T05:22:04;21.10;99.90
59067;DHT22;44854;50.838;4.438;2023-06-10T05:24:30;21.00;99.90
59067;DHT22;44854;50.838;4.438;2023-06-10T05:26:55;21.10;99.90
59067;DHT22;44854;50.838;4.438;2023-06-10T05:29:21;21.10;99.90
59067;DHT22;44854;50.838;4.438;2023-06-10T05:31:47;21.30;99.90
59067;DHT22;44854;50.838;4.438;2023-06-10T05:34:12;21.20;99.90
59067;DHT22;44854;50.838;4.438;2023-06-10T05:36:38;21.20;99.90
59067;DHT22;44854;50.838;4.438;2023-06-10T05:39:03;21.20;99.90
59067;DHT22;44854;50.838;4.438;2023-06-10T05:41:29;21.30;99.90
59067;DHT22;44854;50.838;4.438;2023-06-10T05:43:55;21.40;99.80
59067;DHT22;44854;50.838;4.438;2023-06-10T05:46:21;21.50;99.90
59067;DHT22;44854;50.838;4.438;2023-06-10T05:48:46;21.60;99.70
59067;DHT22;44854;50.838;4.438;2023-06-10T05:51:12;21.60;99.60
59067;DHT22;44854;50.838;4.438;2023-06-10T05:53:37;21.70;99.40
59067;DHT22;44854;50.838;4.438;2023-06-10T05:56:03;21.80;99.30
59067;DHT22;44854;50.838;4.438;2023-06-10T05:58:29;21.80;99.40
59067;DHT22;44854;50.838;4.438;2023-06-10T06:00:55;21.80;99.30
59067;DHT22;44854;50.838;4.438;2023-06-10T06:03:20;21.80;99.50
59067;DHT22;44854;50.838;4.438;2023-06-10T06:05:46;21.90;99.50
59067;DHT22;44854;50.838;4.438;2023-06-10T06:08:11;22.00;99.20
59067;DHT22;44854;50.838;4.438;2023-06-10T06:10:38;22.20;99.10
59067;DHT22;44854;50.838;4.438;2023-06-10T06:13:04;22.30;99.00
59067;DHT22;44854;50.838;4.438;2023-06-10T06:15:29;22.50;98.90
59067;DHT22;44854;50.838;4.438;2023-06-10T06:17:55;22.60;98.50
59067;DHT22;44854;50.838;4.438;2023-06-10T06:20:21;22.70;98.50
59067;DHT22;44854;50.838;4.438;2023-06-10T06:22:47;22.90;98.10
59067;DHT22;44854;50.838;4.438;2023-06-10T06:25:12;23.20;97.90
59067;DHT22;44854;50.838;4.438;2023-06-10T06:27:38;23.20;97.40
59067;DHT22;44854;50.838;4.438;2023-06-10T06:30:04;23.10;97.70
59067;DHT22;44854;50.838;4.438;2023-06-10T06:32:29;23.30;97.50
59067;DHT22;44854;50.838;4.438;2023-06-10T06:34:55;23.40;97.40
59067;DHT22;44854;50.838;4.438;2023-06-10T06:37:24;23.50;96.90
59067;DHT22;44854;50.838;4.438;2023-06-10T06:39:50;23.70;97.00
59067;DHT22;44854;50.838;4.438;2023-06-10T06:42:16;23.60;96.90
59067;DHT22;44854;50.838;4.438;2023-06-10T06:44:42;23.70;96.50
59067;DHT22;44854;50.838;4.438;2023-06-10T06:47:07;23.90;96.50
59067;DHT22;44854;50.838;4.438;2023-06-10T06:49:33;24.10;96.60
59067;DHT22;44854;50.838;4.438;2023-06-10T06:51:58;24.10;96.10
59067;DHT22;44854;50.838;4.438;2023-06-10T06:54:24;24.10;96.00
59067;DHT22;44854;50.838;4.438;2023-06-10T06:56:50;24.20;96.10
59067;DHT22;44854;50.838;4.438;2023-06-10T06:59:15;24.30;96.10
59067;DHT22;44854;50.838;4.438;2023-06-10T07:01:42;24.40;95.80
59067;DHT22;44854;50.838;4.438;2023-06-10T07:04:08;24.40;95.80
59067;DHT22;44854;50.838;4.438;2023-06-10T07:06:33;24.50;95.50
59067;DHT22;44854;50.838;4.438;2023-06-10T07:09:00;24.50;95.40
59067;DHT22;44854;50.838;4.438;2023-06-10T07:11:27;24.60;95.40
59067;DHT22;44854;50.838;4.438;2023-06-10T07:13:53;24.60;95.40
59067;DHT22;44854;50.838;4.438;2023-06-10T07:16:18;24.70;95.50
59067;DHT22;44854;50.838;4.438;2023-06-10T07:18:46;24.90;95.00
59067;DHT22;44854;50.838;4.438;2023-06-10T07:21:11;25.00;94.00
59067;DHT22;44854;50.838;4.438;2023-06-10T07:23:37;25.20;94.40
59067;DHT22;44854;50.838;4.438;2023-06-10T07:26:02;25.20;94.20
59067;DHT22;44854;50.838;4.438;2023-06-10T07:28:28;25.40;94.20
59067;DHT22;44854;50.838;4.438;2023-06-10T07:30:53;25.50;93.80
59067;DHT22;44854;50.838;4.438;2023-06-10T07:33:19;25.60;93.70
59067;DHT22;44854;50.838;4.438;2023-06-10T07:35:45;25.70;93.30
59067;DHT22;44854;50.838;4.438;2023-06-10T07:38:10;25.80;93.00
59067;DHT22;44854;50.838;4.438;2023-06-10T07:40:37;25.80;93.00
59067;DHT22;44854;50.838;4.438;2023-06-10T07:43:03;26.00;92.90
59067;DHT22;44854;50.838;4.438;2023-06-10T07:45:28;25.90;92.40
59067;DHT22;44854;50.838;4.438;2023-06-10T07:47:54;26.00;92.50
59067;DHT22;44854;50.838;4.438;2023-06-10T07:50:20;26.10;92.70
59067;DHT22;44854;50.838;4.438;2023-06-10T07:52:45;26.10;92.90
59067;DHT22;44854;50.838;4.438;2023-06-10T07:55:11;26.20;92.70
59067;DHT22;44854;50.838;4.438;2023-06-10T07:57:36;26.30;92.80
59067;DHT22;44854;50.838;4.438;2023-06-10T08:00:04;26.50;92.80
59067;DHT22;44854;50.838;4.438;2023-06-10T08:02:30;26.50;92.10
59067;DHT22;44854;50.838;4.438;2023-06-10T08:04:55;26.50;91.80
59067;DHT22;44854;50.838;4.438;2023-06-10T08:07:21;26.60;92.20
59067;DHT22;44854;50.838;4.438;2023-06-10T08:09:47;26.50;92.20
59067;DHT22;44854;50.838;4.438;2023-06-10T08:12:13;26.40;91.60
59067;DHT22;44854;50.838;4.438;2023-06-10T08:14:39;26.50;91.70
59067;DHT22;44854;50.838;4.438;2023-06-10T08:17:04;26.80;91.60
59067;DHT22;44854;50.838;4.438;2023-06-10T08:19:31;26.60;91.20
59067;DHT22;44854;50.838;4.438;2023-06-10T08:21:57;26.70;91.20
59067;DHT22;44854;50.838;4.438;2023-06-10T08:24:22;26.90;90.50
59067;DHT22;44854;50.838;4.438;2023-06-10T08:26:48;27.10;90.80
59067;DHT22;44854;50.838;4.438;2023-06-10T08:29:13;27.10;90.80
59067;DHT22;44854;50.838;4.438;2023-06-10T08:31:43;27.20;90.50
59067;DHT22;44854;50.838;4.438;2023-06-10T08:34:09;27.30;89.80
59067;DHT22;44854;50.838;4.438;2023-06-10T08:36:34;27.40;88.90
59067;DHT22;44854;50.838;4.438;2023-06-10T08:39:01;27.30;89.20
59067;DHT22;44854;50.838;4.438;2023-06-10T08:41:28;27.30;89.00
59067;DHT22;44854;50.838;4.438;2023-06-10T08:43:56;27.40;89.40
59067;DHT22;44854;50.838;4.438;2023-06-10T08:46:25;27.40;89.30
59067;DHT22;44854;50.838;4.438;2023-06-10T08:48:51;27.40;88.60
59067;DHT22;44854;50.838;4.438;2023-06-10T08:51:19;27.50;88.90
59067;DHT22;44854;50.838;4.438;2023-06-10T08:53:48;27.60;89.50
59067;DHT22;44854;50.838;4.438;2023-06-10T08:56:15;27.60;88.60
59067;DHT22;44854;50.838;4.438;2023-06-10T08:58:41;27.70;88.50
59067;DHT22;44854;50.838;4.438;2023-06-10T09:01:08;27.80;89.30
59067;DHT22;44854;50.838;4.438;2023-06-10T09:03:36;28.10;87.90
59067;DHT22;44854;50.838;4.438;2023-06-10T09:06:03;28.10;87.70
59067;DHT22;44854;50.838;4.438;2023-06-10T09:08:30;28.00;88.50
59067;DHT22;44854;50.838;4.438;2023-06-10T09:10:55;28.00;88.40
59067;DHT22;44854;50.838;4.438;2023-06-10T09:13:21;28.40;86.60
59067;DHT22;44854;50.838;4.438;2023-06-10T09:15:47;28.50;86.80
59067;DHT22;44854;50.838;4.438;2023-06-10T09:18:14;28.50;86.10
59067;DHT22;44854;50.838;4.438;2023-06-10T09:20:41;28.40;86.70
59067;DHT22;44854;50.838;4.438;2023-06-10T09:23:07;28.40;85.00
59067;DHT22;44854;50.838;4.438;2023-06-10T09:25:36;28.50;85.40
59067;DHT22;44854;50.838;4.438;2023-06-10T09:28:02;28.60;85.30
59067;DHT22;44854;50.838;4.438;2023-06-10T09:32:54;28.70;85.10
59067;DHT22;44854;50.838;4.438;2023-06-10T09:35:22;28.50;85.60
59067;DHT22;44854;50.838;4.438;2023-06-10T09:37:49;28.30;86.20
59067;DHT22;44854;50.838;4.438;2023-06-10T09:40:15;28.50;85.10
59067;DHT22;44854;50.838;4.438;2023-06-10T09:42:40;28.80;84.30
59067;DHT22;44854;50.838;4.438;2023-06-10T09:45:06;28.60;83.50
59067;DHT22;44854;50.838;4.438;2023-06-10T09:47:32;28.80;84.70
59067;DHT22;44854;50.838;4.438;2023-06-10T09:49:58;28.80;82.20
59067;DHT22;44854;50.838;4.438;2023-06-10T09:52:24;28.90;81.50
59067;DHT22;44854;50.838;4.438;2023-06-10T09:54:53;29.10;82.40
59067;DHT22;44854;50.838;4.438;2023-06-10T09:57:20;28.90;82.00
59067;DHT22;44854;50.838;4.438;2023-06-10T09:59:46;29.00;82.30
59067;DHT22;44854;50.838;4.438;2023-06-10T10:02:14;29.20;81.00
59067;DHT22;44854;50.838;4.438;2023-06-10T10:04:41;29.30;81.10
59067;DHT22;44854;50.838;4.438;2023-06-10T10:07:07;29.50;81.20
59067;DHT22;44854;50.838;4.438;2023-06-10T10:09:35;29.30;81.10
59067;DHT22;44854;50.838;4.438;2023-06-10T10:12:01;29.30;80.40
59067;DHT22;44854;50.838;4.438;2023-06-10T10:14:27;29.50;79.30
59067;DHT22;44854;50.838;4.438;2023-06-10T10:16:54;29.50;78.10
59067;DHT22;44854;50.838;4.438;2023-06-10T10:19:23;29.40;79.60
59067;DHT22;44854;50.838;4.438;2023-06-10T10:21:54;29.50;77.80
59067;DHT22;44854;50.838;4.438;2023-06-10T10:24:23;29.70;78.20
59067;DHT22;44854;50.838;4.438;2023-06-10T10:26:51;29.80;79.20
59067;DHT22;44854;50.838;4.438;2023-06-10T10:29:22;30.10;78.00
59067;DHT22;44854;50.838;4.438;2023-06-10T10:31:52;30.00;76.00
59067;DHT22;44854;50.838;4.438;2023-06-10T10:34:21;30.00;76.00
59067;DHT22;44854;50.838;4.438;2023-06-10T10:36:47;30.00;75.90
59067;DHT22;44854;50.838;4.438;2023-06-10T10:39:14;29.90;73.20
59067;DHT22;44854;50.838;4.438;2023-06-10T10:41:40;30.00;72.30
59067;DHT22;44854;50.838;4.438;2023-06-10T10:44:06;30.30;73.20
59067;DHT22;44854;50.838;4.438;2023-06-10T10:46:42;30.30;73.90
59067;DHT22;44854;50.838;4.438;2023-06-10T10:49:08;30.40;73.00
59067;DHT22;44854;50.838;4.438;2023-06-10T10:51:35;30.40;72.20
59067;DHT22;44854;50.838;4.438;2023-06-10T10:54:10;30.40;72.10
59067;DHT22;44854;50.838;4.438;2023-06-10T10:56:36;30.50;69.20
59067;DHT22;44854;50.838;4.438;2023-06-10T10:59:05;30.80;66.20
59067;DHT22;44854;50.838;4.438;2023-06-10T11:01:40;31.00;68.50
59067;DHT22;44854;50.838;4.438;2023-06-10T11:04:07;31.00;69.70
59067;DHT22;44854;50.838;4.438;2023-06-10T11:06:33;30.70;71.70
59067;DHT22;44854;50.838;4.438;2023-06-10T11:08:59;30.80;71.70
59067;DHT22;44854;50.838;4.438;2023-06-10T11:11:26;30.50;68.30
59067;DHT22;44854;50.838;4.438;2023-06-10T11:16:42;30.40;67.90
59067;DHT22;44854;50.838;4.438;2023-06-10T11:19:08;30.50;68.00
59067;DHT22;44854;50.838;4.438;2023-06-10T11:24:18;30.40;69.10
59067;DHT22;44854;50.838;4.438;2023-06-10T11:26:44;30.40;69.80
59067;DHT22;44854;50.838;4.438;2023-06-10T11:29:09;30.40;68.60
59067;DHT22;44854;50.838;4.438;2023-06-10T11:31:39;30.80;66.20
59067;DHT22;44854;50.838;4.438;2023-06-10T11:34:06;31.20;65.60
59067;DHT22;44854;50.838;4.438;2023-06-10T11:36:33;31.10;65.80
59067;DHT22;44854;50.838;4.438;2023-06-10T11:38:59;31.20;64.80
59067;DHT22;44854;50.838;4.438;2023-06-10T11:41:25;31.20;66.70
59067;DHT22;44854;50.838;4.438;2023-06-10T11:43:52;31.00;67.00
59067;DHT22;44854;50.838;4.438;2023-06-10T11:46:18;31.10;64.50
59067;DHT22;44854;50.838;4.438;2023-06-10T11:48:51;31.10;64.20
59067;DHT22;44854;50.838;4.438;2023-06-10T11:51:16;31.20;64.60
59067;DHT22;44854;50.838;4.438;2023-06-10T11:53:48;31.30;63.30
59067;DHT22;44854;50.838;4.438;2023-06-10T11:56:19;31.50;63.70
59067;DHT22;44854;50.838;4.438;2023-06-10T11:58:44;31.60;64.30
59067;DHT22;44854;50.838;4.438;2023-06-10T12:01:10;31.40;62.80
59067;DHT22;44854;50.838;4.438;2023-06-10T12:03:36;31.30;63.30
59067;DHT22;44854;50.838;4.438;2023-06-10T12:06:06;31.30;63.50
59067;DHT22;44854;50.838;4.438;2023-06-10T12:08:32;31.30;64.00
59067;DHT22;44854;50.838;4.438;2023-06-10T12:10:58;31.40;64.50
59067;DHT22;44854;50.838;4.438;2023-06-10T12:13:27;31.30;64.00
59067;DHT22;44854;50.838;4.438;2023-06-10T12:15:53;31.30;63.70
59067;DHT22;44854;50.838;4.438;2023-06-10T12:18:19;31.40;64.20
59067;DHT22;44854;50.838;4.438;2023-06-10T12:20:45;31.40;63.00
59067;DHT22;44854;50.838;4.438;2023-06-10T12:23:11;31.50;63.90
59067;DHT22;44854;50.838;4.438;2023-06-10T12:25:37;31.70;64.10
59067;DHT22;44854;50.838;4.438;2023-06-10T12:28:03;31.80;63.40
59067;DHT22;44854;50.838;4.438;2023-06-10T12:30:29;31.90;63.50
59067;DHT22;44854;50.838;4.438;2023-06-10T12:32:55;31.80;62.10
59067;DHT22;44854;50.838;4.438;2023-06-10T12:35:21;31.60;64.10
59067;DHT22;44854;50.838;4.438;2023-06-10T12:37:55;31.80;62.40
59067;DHT22;44854;50.838;4.438;2023-06-10T12:42:57;31.70;62.60
59067;DHT22;44854;50.838;4.438;2023-06-10T12:45:26;31.60;62.90
59067;DHT22;44854;50.838;4.438;2023-06-10T12:47:52;31.80;63.10
59067;DHT22;44854;50.838;4.438;2023-06-10T12:50:17;31.70;63.30
59067;DHT22;44854;50.838;4.438;2023-06-10T12:52:43;31.80;63.90
59067;DHT22;44854;50.838;4.438;2023-06-10T12:55:08;31.70;62.90
59067;DHT22;44854;50.838;4.438;2023-06-10T12:57:34;31.60;62.90
59067;DHT22;44854;50.838;4.438;2023-06-10T12:59:59;31.80;63.90
59067;DHT22;44854;50.838;4.438;2023-06-10T13:02:37;31.80;62.50
59067;DHT22;44854;50.838;4.438;2023-06-10T13:05:03;31.80;63.70
59067;DHT22;44854;50.838;4.438;2023-06-10T13:07:29;31.90;62.80
59067;DHT22;44854;50.838;4.438;2023-06-10T13:09:55;32.00;63.50
59067;DHT22;44854;50.838;4.438;2023-06-10T13:12:22;32.10;63.80
59067;DHT22;44854;50.838;4.438;2023-06-10T13:14:47;32.00;62.70
59067;DHT22;44854;50.838;4.438;2023-06-10T13:17:13;32.00;61.80
59067;DHT22;44854;50.838;4.438;2023-06-10T13:19:38;32.00;62.90
59067;DHT22;44854;50.838;4.438;2023-06-10T13:22:04;32.00;63.10
59067;DHT22;44854;50.838;4.438;2023-06-10T13:24:29;32.30;62.60
59067;DHT22;44854;50.838;4.438;2023-06-10T13:26:55;32.40;60.70
59067;DHT22;44854;50.838;4.438;2023-06-10T13:29:21;32.40;61.30
59067;DHT22;44854;50.838;4.438;2023-06-10T13:31:47;32.30;60.70
59067;DHT22;44854;50.838;4.438;2023-06-10T13:34:12;32.40;61.70
59067;DHT22;44854;50.838;4.438;2023-06-10T13:36:38;32.20;60.20
59067;DHT22;44854;50.838;4.438;2023-06-10T13:39:03;32.10;60.10
59067;DHT22;44854;50.838;4.438;2023-06-10T13:41:29;32.00;60.60
59067;DHT22;44854;50.838;4.438;2023-06-10T13:43:55;32.10;60.80
59067;DHT22;44854;50.838;4.438;2023-06-10T13:46:20;32.30;60.30
59067;DHT22;44854;50.838;4.438;2023-06-10T13:48:47;32.30;59.80
59067;DHT22;44854;50.838;4.438;2023-06-10T13:51:12;32.40;59.80
59067;DHT22;44854;50.838;4.438;2023-06-10T13:53:38;32.50;59.80
59067;DHT22;44854;50.838;4.438;2023-06-10T13:56:03;32.60;60.00
59067;DHT22;44854;50.838;4.438;2023-06-10T13:58:29;32.60;59.80
59067;DHT22;44854;50.838;4.438;2023-06-10T14:00:55;32.40;60.90
59067;DHT22;44854;50.838;4.438;2023-06-10T14:03:20;32.30;59.00
59067;DHT22;44854;50.838;4.438;2023-06-10T14:05:46;32.30;59.00
59067;DHT22;44854;50.838;4.438;2023-06-10T14:08:11;32.30;59.00
59067;DHT22;44854;50.838;4.438;2023-06-10T14:10:37;32.20;59.50
59067;DHT22;44854;50.838;4.438;2023-06-10T14:13:02;32.20;58.30
59067;DHT22;44854;50.838;4.438;2023-06-10T14:15:28;32.30;58.70
59067;DHT22;44854;50.838;4.438;2023-06-10T14:17:53;32.40;59.80
59067;DHT22;44854;50.838;4.438;2023-06-10T14:20:19;32.40;58.70
59067;DHT22;44854;50.838;4.438;2023-06-10T14:22:45;32.40;59.20
59067;DHT22;44854;50.838;4.438;2023-06-10T14:25:10;32.40;59.50
59067;DHT22;44854;50.838;4.438;2023-06-10T14:27:36;32.40;59.60
59067;DHT22;44854;50.838;4.438;2023-06-10T14:30:02;32.40;59.00
59067;DHT22;44854;50.838;4.438;2023-06-10T14:32:28;32.30;59.10
59067;DHT22;44854;50.838;4.438;2023-06-10T14:34:54;32.30;58.30
59067;DHT22;44854;50.838;4.438;2023-06-10T14:37:19;32.20;58.30
59067;DHT22;44854;50.838;4.438;2023-06-10T14:39:45;32.10;58.60
59067;DHT22;44854;50.838;4.438;2023-06-10T14:42:10;32.20;58.90
59067;DHT22;44854;50.838;4.438;2023-06-10T14:44:36;32.20;59.50
59067;DHT22;44854;50.838;4.438;2023-06-10T14:47:02;32.20;58.90
59067;DHT22;44854;50.838;4.438;2023-06-10T14:49:27;32.20;57.70
59067;DHT22;44854;50.838;4.438;2023-06-10T14:51:53;32.00;57.90
59067;DHT22;44854;50.838;4.438;2023-06-10T14:54:19;32.00;58.40
59067;DHT22;44854;50.838;4.438;2023-06-10T14:56:44;32.10;58.90
59067;DHT22;44854;50.838;4.438;2023-06-10T14:59:10;32.00;58.20
59067;DHT22;44854;50.838;4.438;2023-06-10T15:01:35;32.00;58.60
59067;DHT22;44854;50.838;4.438;2023-06-10T15:04:01;32.00;59.20
59067;DHT22;44854;50.838;4.438;2023-06-10T15:06:27;32.10;58.60
59067;DHT22;44854;50.838;4.438;2023-06-10T15:08:53;32.30;59.10
59067;DHT22;44854;50.838;4.438;2023-06-10T15:11:18;32.30;58.00
59067;DHT22;44854;50.838;4.438;2023-06-10T15:13:44;32.30;57.90
59067;DHT22;44854;50.838;4.438;2023-06-10T15:16:09;32.20;59.20
59067;DHT22;44854;50.838;4.438;2023-06-10T15:18:35;32.30;58.50
59067;DHT22;44854;50.838;4.438;2023-06-10T15:21:01;32.30;57.80
59067;DHT22;44854;50.838;4.438;2023-06-10T15:23:26;32.40;58.00
59067;DHT22;44854;50.838;4.438;2023-06-10T15:25:52;32.50;57.80
59067;DHT22;44854;50.838;4.438;2023-06-10T15:28:17;32.40;57.70
59067;DHT22;44854;50.838;4.438;2023-06-10T15:30:43;32.40;57.10
59067;DHT22;44854;50.838;4.438;2023-06-10T15:33:08;32.30;57.70
59067;DHT22;44854;50.838;4.438;2023-06-10T15:35:34;32.10;58.00
59067;DHT22;44854;50.838;4.438;2023-06-10T15:37:59;32.10;58.00
59067;DHT22;44854;50.838;4.438;2023-06-10T15:40:25;32.10;58.20
59067;DHT22;44854;50.838;4.438;2023-06-10T15:42:51;32.00;58.20
59067;DHT22;44854;50.838;4.438;2023-06-10T15:45:17;31.90;58.60
59067;DHT22;44854;50.838;4.438;2023-06-10T15:47:42;31.90;59.10
59067;DHT22;44854;50.838;4.438;2023-06-10T15:50:08;32.00;59.70
59067;DHT22;44854;50.838;4.438;2023-06-10T15:52:34;32.00;59.00
59067;DHT22;44854;50.838;4.438;2023-06-10T15:55:00;32.00;59.20
59067;DHT22;44854;50.838;4.438;2023-06-10T15:57:25;32.00;58.60
59067;DHT22;44854;50.838;4.438;2023-06-10T15:59:51;32.20;59.00
59067;DHT22;44854;50.838;4.438;2023-06-10T16:02:16;32.20;58.10
59067;DHT22;44854;50.838;4.438;2023-06-10T16:04:42;32.00;58.40
59067;DHT22;44854;50.838;4.438;2023-06-10T16:07:07;31.80;58.50
59067;DHT22;44854;50.838;4.438;2023-06-10T16:09:33;32.00;58.50
59067;DHT22;44854;50.838;4.438;2023-06-10T16:11:59;32.00;58.70
59067;DHT22;44854;50.838;4.438;2023-06-10T16:14:25;32.00;59.00
59067;DHT22;44854;50.838;4.438;2023-06-10T16:16:51;32.20;58.70
59067;DHT22;44854;50.838;4.438;2023-06-10T16:19:17;32.20;58.40
59067;DHT22;44854;50.838;4.438;2023-06-10T16:21:43;32.20;58.20
59067;DHT22;44854;50.838;4.438;2023-06-10T16:24:08;32.30;58.50
59067;DHT22;44854;50.838;4.438;2023-06-10T16:26:34;32.20;58.00
59067;DHT22;44854;50.838;4.438;2023-06-10T16:29:01;32.20;58.70
59067;DHT22;44854;50.838;4.438;2023-06-10T16:31:27;32.20;58.00
59067;DHT22;44854;50.838;4.438;2023-06-10T16:33:52;32.00;58.30
59067;DHT22;44854;50.838;4.438;2023-06-10T16:36:18;32.00;59.00
59067;DHT22;44854;50.838;4.438;2023-06-10T16:38:43;32.00;59.10
59067;DHT22;44854;50.838;4.438;2023-06-10T16:41:09;32.20;58.10
59067;DHT22;44854;50.838;4.438;2023-06-10T16:43:34;32.30;58.80
59067;DHT22;44854;50.838;4.438;2023-06-10T16:46:00;32.20;57.80
59067;DHT22;44854;50.838;4.438;2023-06-10T16:48:25;32.00;58.30
59067;DHT22;44854;50.838;4.438;2023-06-10T16:50:51;32.10;58.80
59067;DHT22;44854;50.838;4.438;2023-06-10T16:53:17;32.00;57.90
59067;DHT22;44854;50.838;4.438;2023-06-10T16:55:42;31.90;57.60
59067;DHT22;44854;50.838;4.438;2023-06-10T16:58:08;31.80;58.10
59067;DHT22;44854;50.838;4.438;2023-06-10T17:00:33;31.80;58.40
59067;DHT22;44854;50.838;4.438;2023-06-10T17:03:00;31.90;57.60
59067;DHT22;44854;50.838;4.438;2023-06-10T17:05:25;32.00;57.50
59067;DHT22;44854;50.838;4.438;2023-06-10T17:07:51;32.00;58.00
59067;DHT22;44854;50.838;4.438;2023-06-10T17:10:16;32.10;57.80
59067;DHT22;44854;50.838;4.438;2023-06-10T17:12:42;32.30;57.80
59067;DHT22;44854;50.838;4.438;2023-06-10T17:15:08;32.30;56.80
59067;DHT22;44854;50.838;4.438;2023-06-10T17:17:33;32.30;57.50
59067;DHT22;44854;50.838;4.438;2023-06-10T17:20:00;32.30;57.50
59067;DHT22;44854;50.838;4.438;2023-06-10T17:22:26;32.00;57.30
59067;DHT22;44854;50.838;4.438;2023-06-10T17:24:51;32.00;57.50
59067;DHT22;44854;50.838;4.438;2023-06-10T17:27:17;32.00;56.70
59067;DHT22;44854;50.838;4.438;2023-06-10T17:29:42;32.20;57.30
59067;DHT22;44854;50.838;4.438;2023-06-10T17:32:08;32.40;57.50
59067;DHT22;44854;50.838;4.438;2023-06-10T17:34:34;32.70;57.00
59067;DHT22;44854;50.838;4.438;2023-06-10T17:37:00;32.50;56.90
59067;DHT22;44854;50.838;4.438;2023-06-10T17:39:25;33.00;56.70
59067;DHT22;44854;50.838;4.438;2023-06-10T17:41:51;33.20;56.00
59067;DHT22;44854;50.838;4.438;2023-06-10T17:44:16;33.30;55.90
59067;DHT22;44854;50.838;4.438;2023-06-10T17:46:46;33.50;56.10
59067;DHT22;44854;50.838;4.438;2023-06-10T17:49:12;33.50;56.10
59067;DHT22;44854;50.838;4.438;2023-06-10T17:51:37;33.80;56.40
59067;DHT22;44854;50.838;4.438;2023-06-10T17:54:03;33.80;55.70
59067;DHT22;44854;50.838;4.438;2023-06-10T17:56:28;33.90;55.60
59067;DHT22;44854;50.838;4.438;2023-06-10T17:58:54;34.20;56.10
59067;DHT22;44854;50.838;4.438;2023-06-10T18:01:19;34.20;55.10
59067;DHT22;44854;50.838;4.438;2023-06-10T18:03:45;34.50;55.80
59067;DHT22;44854;50.838;4.438;2023-06-10T18:06:11;34.50;55.20
59067;DHT22;44854;50.838;4.438;2023-06-10T18:08:37;34.30;55.80
59067;DHT22;44854;50.838;4.438;2023-06-10T18:11:02;34.30;56.00
59067;DHT22;44854;50.838;4.438;2023-06-10T18:13:28;34.20;56.10
59067;DHT22;44854;50.838;4.438;2023-06-10T18:15:53;34.20;56.10
59067;DHT22;44854;50.838;4.438;2023-06-10T18:18:19;34.10;56.50
59067;DHT22;44854;50.838;4.438;2023-06-10T18:20:45;34.10;56.90
59067;DHT22;44854;50.838;4.438;2023-06-10T18:23:10;33.90;56.90
59067;DHT22;44854;50.838;4.438;2023-06-10T18:25:36;33.90;57.10
59067;DHT22;44854;50.838;4.438;2023-06-10T18:28:01;34.00;57.60
59067;DHT22;44854;50.838;4.438;2023-06-10T18:30:27;33.90;57.10
59067;DHT22;44854;50.838;4.438;2023-06-10T18:32:52;33.80;57.40
59067;DHT22;44854;50.838;4.438;2023-06-10T18:35:18;33.80;57.40
59067;DHT22;44854;50.838;4.438;2023-06-10T18:37:44;33.70;57.60
59067;DHT22;44854;50.838;4.438;2023-06-10T18:40:09;33.50;57.90
59067;DHT22;44854;50.838;4.438;2023-06-10T18:42:35;33.00;58.30
59067;DHT22;44854;50.838;4.438;2023-06-10T18:45:00;32.80;58.60
59067;DHT22;44854;50.838;4.438;2023-06-10T18:47:26;32.60;59.30
59067;DHT22;44854;50.838;4.438;2023-06-10T18:49:51;32.40;59.20
59067;DHT22;44854;50.838;4.438;2023-06-10T18:52:17;32.20;60.20
59067;DHT22;44854;50.838;4.438;2023-06-10T18:54:42;32.00;60.30
59067;DHT22;44854;50.838;4.438;2023-06-10T18:57:09;31.90;60.60
59067;DHT22;44854;50.838;4.438;2023-06-10T18:59:34;31.90;61.00
59067;DHT22;44854;50.838;4.438;2023-06-10T19:02:00;31.70;61.70
59067;DHT22;44854;50.838;4.438;2023-06-10T19:04:26;31.60;61.70
59067;DHT22;44854;50.838;4.438;2023-06-10T19:06:51;31.40;62.60
59067;DHT22;44854;50.838;4.438;2023-06-10T19:09:17;31.30;62.60
59067;DHT22;44854;50.838;4.438;2023-06-10T19:11:42;31.20;62.80
59067;DHT22;44854;50.838;4.438;2023-06-10T19:14:08;31.10;63.40
59067;DHT22;44854;50.838;4.438;2023-06-10T19:16:34;31.10;64.70
59067;DHT22;44854;50.838;4.438;2023-06-10T19:18:59;30.80;64.60
59067;DHT22;44854;50.838;4.438;2023-06-10T19:21:25;30.60;63.90
59067;DHT22;44854;50.838;4.438;2023-06-10T19:23:50;30.50;67.10
59067;DHT22;44854;50.838;4.438;2023-06-10T19:26:16;30.40;66.90
59067;DHT22;44854;50.838;4.438;2023-06-10T19:28:41;30.30;68.40
59067;DHT22;44854;50.838;4.438;2023-06-10T19:31:07;30.30;68.20
59067;DHT22;44854;50.838;4.438;2023-06-10T19:33:32;30.10;68.70
59067;DHT22;44854;50.838;4.438;2023-06-10T19:35:58;30.00;69.40